sensor_id;sensor_type;location;lat;lon;timestamp;P1;durP1;ratioP1;P2;durP2;ratioP2
13985;SDS011;7067;51.832;8.296;2023-04-21T00:00:24;45.67;;;40.95;;
13985;SDS011;7067;51.832;8.296;2023-04-21T00:02:49;47.80;;;42.90;;
13985;SDS011;7067;51.832;8.296;2023-04-21T00:05:15;46.78;;;41.78;;
13985;SDS011;7067;51.832;8.296;2023-04-21T00:07:40;47.45;;;42.47;;
13985;SDS011;7067;51.832;8.296;2023-04-21T00:10:06;50.55;;;44.58;;
13985;SDS011;7067;51.832;8.296;2023-04-21T00:12:32;49.30;;;43.97;;
13985;SDS011;7067;51.832;8.296;2023-04-21T00:14:58;49.60;;;44.30;;
13985;SDS011;7067;51.832;8.296;2023-04-21T00:17:23;51.60;;;46.05;;
13985;SDS011;7067;51.832;8.296;2023-04-21T00:19:49;51.55;;;46.08;;
13985;SDS011;7067;51.832;8.296;2023-04-21T00:22:15;49.13;;;44.20;;
13985;SDS011;7067;51.832;8.296;2023-04-21T00:24:41;56.15;;;46.50;;
13985;SDS011;7067;51.832;8.296;2023-04-21T00:27:06;49.97;;;44.88;;
13985;SDS011;7067;51.832;8.296;2023-04-21T00:29:32;52.95;;;47.17;;
13985;SDS011;7067;51.832;8.296;2023-04-21T00:31:57;50.75;;;45.45;;
13985;SDS011;7067;51.832;8.296;2023-04-21T00:34:23;51.65;;;45.78;;
13985;SDS011;7067;51.832;8.296;2023-04-21T00:36:49;55.38;;;47.08;;
13985;SDS011;7067;51.832;8.296;2023-04-21T00:39:14;52.78;;;46.22;;
13985;SDS011;7067;51.832;8.296;2023-04-21T00:41:39;50.30;;;45.03;;
13985;SDS011;7067;51.832;8.296;2023-04-21T00:44:06;52.83;;;47.13;;
13985;SDS011;7067;51.832;8.296;2023-04-21T00:46:32;53.08;;;47.53;;
13985;SDS011;7067;51.832;8.296;2023-04-21T00:48:58;54.78;;;48.92;;
13985;SDS011;7067;51.832;8.296;2023-04-21T00:51:25;52.22;;;46.58;;
13985;SDS011;7067;51.832;8.296;2023-04-21T00:53:51;51.47;;;45.90;;
13985;SDS011;7067;51.832;8.296;2023-04-21T00:56:16;52.03;;;46.45;;
13985;SDS011;7067;51.832;8.296;2023-04-21T00:58:42;49.85;;;43.55;;
13985;SDS011;7067;51.832;8.296;2023-04-21T01:01:09;47.53;;;42.17;;
13985;SDS011;7067;51.832;8.296;2023-04-21T01:03:34;50.08;;;43.83;;
13985;SDS011;7067;51.832;8.296;2023-04-21T01:06:00;50.83;;;44.17;;
13985;SDS011;7067;51.832;8.296;2023-04-21T01:08:25;47.97;;;42.78;;
13985;SDS011;7067;51.832;8.296;2023-04-21T01:10:51;48.42;;;41.90;;
13985;SDS011;7067;51.832;8.296;2023-04-21T01:13:18;48.85;;;43.33;;
13985;SDS011;7067;51.832;8.296;2023-04-21T01:15:44;48.50;;;42.75;;
13985;SDS011;7067;51.832;8.296;2023-04-21T01:18:09;48.97;;;41.75;;
13985;SDS011;7067;51.832;8.296;2023-04-21T01:20:35;47.38;;;42.33;;
13985;SDS011;7067;51.832;8.296;2023-04-21T01:23:01;45.08;;;40.20;;
13985;SDS011;7067;51.832;8.296;2023-04-21T01:25:26;44.08;;;39.35;;
13985;SDS011;7067;51.832;8.296;2023-04-21T01:27:52;44.38;;;39.55;;
13985;SDS011;7067;51.832;8.296;2023-04-21T01:30:17;43.50;;;38.72;;
13985;SDS011;7067;51.832;8.296;2023-04-21T01:32:43;45.60;;;39.55;;
13985;SDS011;7067;51.832;8.296;2023-04-21T01:35:08;45.72;;;38.67;;
13985;SDS011;7067;51.832;8.296;2023-04-21T01:37:33;42.95;;;37.88;;
13985;SDS011;7067;51.832;8.296;2023-04-21T01:40:01;41.53;;;37.03;;
13985;SDS011;7067;51.832;8.296;2023-04-21T01:42:32;43.45;;;38.35;;
13985;SDS011;7067;51.832;8.296;2023-04-21T01:44:58;43.58;;;36.90;;
13985;SDS011;7067;51.832;8.296;2023-04-21T01:47:24;43.20;;;36.65;;
13985;SDS011;7067;51.832;8.296;2023-04-21T01:49:50;44.30;;;37.40;;
13985;SDS011;7067;51.832;8.296;2023-04-21T01:52:15;41.42;;;36.90;;
13985;SDS011;7067;51.832;8.296;2023-04-21T01:54:41;41.53;;;36.30;;
13985;SDS011;7067;51.832;8.296;2023-04-21T01:57:06;44.00;;;38.17;;
13985;SDS011;7067;51.832;8.296;2023-04-21T01:59:31;43.20;;;36.47;;
13985;SDS011;7067;51.832;8.296;2023-04-21T02:01:57;44.58;;;38.00;;
13985;SDS011;7067;51.832;8.296;2023-04-21T02:04:22;46.50;;;37.00;;
13985;SDS011;7067;51.832;8.296;2023-04-21T02:06:47;42.80;;;36.80;;
13985;SDS011;7067;51.832;8.296;2023-04-21T02:09:13;41.70;;;36.17;;
13985;SDS011;7067;51.832;8.296;2023-04-21T02:11:38;41.97;;;36.40;;
13985;SDS011;7067;51.832;8.296;2023-04-21T02:14:03;42.20;;;37.00;;
13985;SDS011;7067;51.832;8.296;2023-04-21T02:16:29;42.28;;;36.78;;
13985;SDS011;7067;51.832;8.296;2023-04-21T02:18:54;41.75;;;37.25;;
13985;SDS011;7067;51.832;8.296;2023-04-21T02:21:21;41.60;;;35.55;;
13985;SDS011;7067;51.832;8.296;2023-04-21T02:23:46;41.13;;;35.75;;
13985;SDS011;7067;51.832;8.296;2023-04-21T02:26:12;42.63;;;36.38;;
13985;SDS011;7067;51.832;8.296;2023-04-21T02:28:37;43.30;;;37.05;;
13985;SDS011;7067;51.832;8.296;2023-04-21T02:31:02;44.33;;;37.45;;
13985;SDS011;7067;51.832;8.296;2023-04-21T02:33:28;42.80;;;36.00;;
13985;SDS011;7067;51.832;8.296;2023-04-21T02:35:53;41.47;;;36.58;;
13985;SDS011;7067;51.832;8.296;2023-04-21T02:38:19;42.72;;;37.22;;
13985;SDS011;7067;51.832;8.296;2023-04-21T02:40:44;42.85;;;36.65;;
13985;SDS011;7067;51.832;8.296;2023-04-21T02:43:09;39.53;;;35.15;;
13985;SDS011;7067;51.832;8.296;2023-04-21T02:45:36;39.15;;;34.95;;
13985;SDS011;7067;51.832;8.296;2023-04-21T02:48:02;39.10;;;34.35;;
13985;SDS011;7067;51.832;8.296;2023-04-21T02:50:27;41.45;;;36.05;;
13985;SDS011;7067;51.832;8.296;2023-04-21T02:52:52;39.83;;;34.40;;
13985;SDS011;7067;51.832;8.296;2023-04-21T02:55:18;38.97;;;34.58;;
13985;SDS011;7067;51.832;8.296;2023-04-21T02:57:43;38.47;;;34.38;;
13985;SDS011;7067;51.832;8.296;2023-04-21T03:00:08;38.13;;;34.10;;
13985;SDS011;7067;51.832;8.296;2023-04-21T03:02:36;37.47;;;33.45;;
13985;SDS011;7067;51.832;8.296;2023-04-21T03:05:01;44.92;;;35.03;;
13985;SDS011;7067;51.832;8.296;2023-04-21T03:07:28;35.97;;;32.03;;
13985;SDS011;7067;51.832;8.296;2023-04-21T03:09:53;40.30;;;34.28;;
13985;SDS011;7067;51.832;8.296;2023-04-21T03:12:18;37.22;;;33.30;;
13985;SDS011;7067;51.832;8.296;2023-04-21T03:14:44;39.75;;;32.83;;
13985;SDS011;7067;51.832;8.296;2023-04-21T03:17:09;38.78;;;34.00;;
13985;SDS011;7067;51.832;8.296;2023-04-21T03:19:34;37.05;;;33.10;;
13985;SDS011;7067;51.832;8.296;2023-04-21T03:22:00;38.80;;;32.95;;
13985;SDS011;7067;51.832;8.296;2023-04-21T03:24:25;37.55;;;31.85;;
13985;SDS011;7067;51.832;8.296;2023-04-21T03:26:51;38.63;;;34.47;;
13985;SDS011;7067;51.832;8.296;2023-04-21T03:29:17;38.65;;;31.73;;
13985;SDS011;7067;51.832;8.296;2023-04-21T03:31:42;35.80;;;32.00;;
13985;SDS011;7067;51.832;8.296;2023-04-21T03:34:08;37.13;;;31.85;;
13985;SDS011;7067;51.832;8.296;2023-04-21T03:36:33;36.95;;;32.88;;
13985;SDS011;7067;51.832;8.296;2023-04-21T03:38:58;36.53;;;32.60;;
13985;SDS011;7067;51.832;8.296;2023-04-21T03:41:23;39.60;;;33.08;;
13985;SDS011;7067;51.832;8.296;2023-04-21T03:43:49;36.97;;;31.20;;
13985;SDS011;7067;51.832;8.296;2023-04-21T03:46:19;37.20;;;31.92;;
13985;SDS011;7067;51.832;8.296;2023-04-21T03:48:45;36.33;;;32.38;;
13985;SDS011;7067;51.832;8.296;2023-04-21T03:51:11;38.47;;;31.33;;
13985;SDS011;7067;51.832;8.296;2023-04-21T03:53:36;34.10;;;29.90;;
13985;SDS011;7067;51.832;8.296;2023-04-21T03:56:02;34.35;;;29.17;;
13985;SDS011;7067;51.832;8.296;2023-04-21T03:58:27;34.08;;;29.95;;
13985;SDS011;7067;51.832;8.296;2023-04-21T04:00:52;36.03;;;29.92;;
13985;SDS011;7067;51.832;8.296;2023-04-21T04:03:18;34.75;;;30.52;;
13985;SDS011;7067;51.832;8.296;2023-04-21T04:05:43;32.17;;;28.77;;
13985;SDS011;7067;51.832;8.296;2023-04-21T04:08:08;37.65;;;30.10;;
13985;SDS011;7067;51.832;8.296;2023-04-21T04:10:34;34.90;;;29.77;;
13985;SDS011;7067;51.832;8.296;2023-04-21T04:12:59;36.67;;;29.92;;
13985;SDS011;7067;51.832;8.296;2023-04-21T04:15:25;35.80;;;29.17;;
13985;SDS011;7067;51.832;8.296;2023-04-21T04:17:51;38.25;;;28.33;;
13985;SDS011;7067;51.832;8.296;2023-04-21T04:20:16;35.97;;;29.50;;
13985;SDS011;7067;51.832;8.296;2023-04-21T04:22:41;32.75;;;27.33;;
13985;SDS011;7067;51.832;8.296;2023-04-21T04:25:07;32.35;;;28.90;;
13985;SDS011;7067;51.832;8.296;2023-04-21T04:27:33;34.58;;;28.67;;
13985;SDS011;7067;51.832;8.296;2023-04-21T04:29:58;41.13;;;29.98;;
13985;SDS011;7067;51.832;8.296;2023-04-21T04:32:24;36.53;;;29.38;;
13985;SDS011;7067;51.832;8.296;2023-04-21T04:34:52;30.70;;;27.40;;
13985;SDS011;7067;51.832;8.296;2023-04-21T04:37:19;33.95;;;29.33;;
13985;SDS011;7067;51.832;8.296;2023-04-21T04:39:45;33.80;;;29.40;;
13985;SDS011;7067;51.832;8.296;2023-04-21T04:42:11;32.60;;;28.02;;
13985;SDS011;7067;51.832;8.296;2023-04-21T04:44:36;34.55;;;28.15;;
13985;SDS011;7067;51.832;8.296;2023-04-21T04:47:02;34.75;;;27.60;;
13985;SDS011;7067;51.832;8.296;2023-04-21T04:49:28;34.08;;;28.83;;
13985;SDS011;7067;51.832;8.296;2023-04-21T04:51:53;31.13;;;27.73;;
13985;SDS011;7067;51.832;8.296;2023-04-21T04:54:19;32.83;;;26.15;;
13985;SDS011;7067;51.832;8.296;2023-04-21T04:56:44;31.52;;;26.60;;
13985;SDS011;7067;51.832;8.296;2023-04-21T04:59:10;32.42;;;27.27;;
13985;SDS011;7067;51.832;8.296;2023-04-21T05:01:35;32.60;;;26.67;;
13985;SDS011;7067;51.832;8.296;2023-04-21T05:04:02;30.33;;;27.08;;
13985;SDS011;7067;51.832;8.296;2023-04-21T05:06:27;31.38;;;26.48;;
13985;SDS011;7067;51.832;8.296;2023-04-21T05:08:53;30.60;;;27.15;;
13985;SDS011;7067;51.832;8.296;2023-04-21T05:11:18;34.25;;;27.33;;
13985;SDS011;7067;51.832;8.296;2023-04-21T05:13:44;29.50;;;26.52;;
13985;SDS011;7067;51.832;8.296;2023-04-21T05:16:09;30.58;;;26.70;;
13985;SDS011;7067;51.832;8.296;2023-04-21T05:18:35;30.48;;;27.13;;
13985;SDS011;7067;51.832;8.296;2023-04-21T05:21:01;30.95;;;26.63;;
13985;SDS011;7067;51.832;8.296;2023-04-21T05:23:26;37.85;;;28.23;;
13985;SDS011;7067;51.832;8.296;2023-04-21T05:25:51;32.47;;;27.15;;
13985;SDS011;7067;51.832;8.296;2023-04-21T05:28:17;32.20;;;26.65;;
13985;SDS011;7067;51.832;8.296;2023-04-21T05:30:42;33.50;;;27.42;;
13985;SDS011;7067;51.832;8.296;2023-04-21T05:33:07;34.17;;;28.02;;
13985;SDS011;7067;51.832;8.296;2023-04-21T05:35:33;32.35;;;25.33;;
13985;SDS011;7067;51.832;8.296;2023-04-21T05:37:58;29.83;;;24.55;;
13985;SDS011;7067;51.832;8.296;2023-04-21T05:40:24;28.90;;;24.05;;
13985;SDS011;7067;51.832;8.296;2023-04-21T05:42:49;26.63;;;22.27;;
13985;SDS011;7067;51.832;8.296;2023-04-21T05:45:15;27.33;;;23.17;;
13985;SDS011;7067;51.832;8.296;2023-04-21T05:47:40;24.77;;;22.08;;
13985;SDS011;7067;51.832;8.296;2023-04-21T05:50:06;48.42;;;25.13;;
13985;SDS011;7067;51.832;8.296;2023-04-21T05:52:31;29.20;;;23.00;;
13985;SDS011;7067;51.832;8.296;2023-04-21T05:54:58;26.08;;;21.92;;
13985;SDS011;7067;51.832;8.296;2023-04-21T05:57:24;29.50;;;23.15;;
13985;SDS011;7067;51.832;8.296;2023-04-21T05:59:49;28.33;;;22.63;;
13985;SDS011;7067;51.832;8.296;2023-04-21T06:02:15;26.67;;;21.67;;
13985;SDS011;7067;51.832;8.296;2023-04-21T06:04:40;35.00;;;21.23;;
13985;SDS011;7067;51.832;8.296;2023-04-21T06:07:06;32.35;;;22.33;;
13985;SDS011;7067;51.832;8.296;2023-04-21T06:09:32;28.88;;;22.70;;
13985;SDS011;7067;51.832;8.296;2023-04-21T06:11:59;24.17;;;21.60;;
13985;SDS011;7067;51.832;8.296;2023-04-21T06:14:24;24.80;;;22.20;;
13985;SDS011;7067;51.832;8.296;2023-04-21T06:16:50;24.20;;;21.58;;
13985;SDS011;7067;51.832;8.296;2023-04-21T06:19:15;27.67;;;23.70;;
13985;SDS011;7067;51.832;8.296;2023-04-21T06:21:40;29.40;;;21.52;;
13985;SDS011;7067;51.832;8.296;2023-04-21T06:24:06;30.25;;;21.63;;
13985;SDS011;7067;51.832;8.296;2023-04-21T06:26:31;26.92;;;22.35;;
13985;SDS011;7067;51.832;8.296;2023-04-21T06:28:56;25.80;;;22.17;;
13985;SDS011;7067;51.832;8.296;2023-04-21T06:31:22;27.48;;;21.92;;
13985;SDS011;7067;51.832;8.296;2023-04-21T06:33:47;27.42;;;20.77;;
13985;SDS011;7067;51.832;8.296;2023-04-21T06:36:12;27.75;;;21.70;;
13985;SDS011;7067;51.832;8.296;2023-04-21T06:38:38;26.25;;;20.35;;
13985;SDS011;7067;51.832;8.296;2023-04-21T06:41:05;27.08;;;20.42;;
13985;SDS011;7067;51.832;8.296;2023-04-21T06:43:31;27.13;;;21.17;;
13985;SDS011;7067;51.832;8.296;2023-04-21T06:45:56;27.90;;;21.55;;
13985;SDS011;7067;51.832;8.296;2023-04-21T06:48:21;23.58;;;20.38;;
13985;SDS011;7067;51.832;8.296;2023-04-21T06:50:48;27.48;;;21.48;;
13985;SDS011;7067;51.832;8.296;2023-04-21T06:53:13;28.15;;;19.70;;
13985;SDS011;7067;51.832;8.296;2023-04-21T06:55:39;23.55;;;20.00;;
13985;SDS011;7067;51.832;8.296;2023-04-21T06:58:05;27.83;;;19.85;;
13985;SDS011;7067;51.832;8.296;2023-04-21T07:00:31;26.88;;;20.00;;
13985;SDS011;7067;51.832;8.296;2023-04-21T07:02:56;25.02;;;20.35;;
13985;SDS011;7067;51.832;8.296;2023-04-21T07:05:22;23.10;;;19.48;;
13985;SDS011;7067;51.832;8.296;2023-04-21T07:07:47;26.90;;;19.38;;
13985;SDS011;7067;51.832;8.296;2023-04-21T07:10:12;28.08;;;19.83;;
13985;SDS011;7067;51.832;8.296;2023-04-21T07:12:43;25.38;;;18.23;;
13985;SDS011;7067;51.832;8.296;2023-04-21T07:15:08;25.45;;;19.67;;
13985;SDS011;7067;51.832;8.296;2023-04-21T07:17:37;26.02;;;18.15;;
13985;SDS011;7067;51.832;8.296;2023-04-21T07:20:02;27.42;;;20.65;;
13985;SDS011;7067;51.832;8.296;2023-04-21T07:22:28;27.30;;;19.42;;
13985;SDS011;7067;51.832;8.296;2023-04-21T07:24:53;40.05;;;19.77;;
13985;SDS011;7067;51.832;8.296;2023-04-21T07:27:18;20.50;;;17.30;;
13985;SDS011;7067;51.832;8.296;2023-04-21T07:29:44;23.55;;;18.85;;
13985;SDS011;7067;51.832;8.296;2023-04-21T07:32:09;23.65;;;18.45;;
13985;SDS011;7067;51.832;8.296;2023-04-21T07:34:35;24.85;;;18.33;;
13985;SDS011;7067;51.832;8.296;2023-04-21T07:37:00;22.55;;;18.98;;
13985;SDS011;7067;51.832;8.296;2023-04-21T07:39:25;20.42;;;18.15;;
13985;SDS011;7067;51.832;8.296;2023-04-21T07:41:51;22.58;;;18.00;;
13985;SDS011;7067;51.832;8.296;2023-04-21T07:44:16;24.00;;;17.52;;
13985;SDS011;7067;51.832;8.296;2023-04-21T07:46:41;24.67;;;18.80;;
13985;SDS011;7067;51.832;8.296;2023-04-21T07:49:07;21.25;;;17.23;;
13985;SDS011;7067;51.832;8.296;2023-04-21T07:51:32;24.98;;;19.02;;
13985;SDS011;7067;51.832;8.296;2023-04-21T07:53:58;27.75;;;19.38;;
13985;SDS011;7067;51.832;8.296;2023-04-21T07:56:23;27.85;;;18.92;;
13985;SDS011;7067;51.832;8.296;2023-04-21T07:58:49;23.45;;;18.00;;
13985;SDS011;7067;51.832;8.296;2023-04-21T08:01:14;20.42;;;18.25;;
13985;SDS011;7067;51.832;8.296;2023-04-21T08:03:39;19.70;;;17.55;;
13985;SDS011;7067;51.832;8.296;2023-04-21T08:06:05;25.05;;;18.00;;
13985;SDS011;7067;51.832;8.296;2023-04-21T08:08:30;19.58;;;15.95;;
13985;SDS011;7067;51.832;8.296;2023-04-21T08:10:56;24.30;;;17.95;;
13985;SDS011;7067;51.832;8.296;2023-04-21T08:13:21;26.23;;;17.67;;
13985;SDS011;7067;51.832;8.296;2023-04-21T08:15:49;19.92;;;16.70;;
13985;SDS011;7067;51.832;8.296;2023-04-21T08:18:15;25.27;;;19.48;;
13985;SDS011;7067;51.832;8.296;2023-04-21T08:20:42;20.00;;;17.05;;
13985;SDS011;7067;51.832;8.296;2023-04-21T08:23:08;21.88;;;16.77;;
13985;SDS011;7067;51.832;8.296;2023-04-21T08:25:33;25.42;;;17.65;;
13985;SDS011;7067;51.832;8.296;2023-04-21T08:27:59;26.98;;;16.98;;
13985;SDS011;7067;51.832;8.296;2023-04-21T08:30:26;21.20;;;16.75;;
13985;SDS011;7067;51.832;8.296;2023-04-21T08:32:52;23.42;;;17.35;;
13985;SDS011;7067;51.832;8.296;2023-04-21T08:35:17;22.75;;;17.92;;
13985;SDS011;7067;51.832;8.296;2023-04-21T08:37:42;26.88;;;16.88;;
13985;SDS011;7067;51.832;8.296;2023-04-21T08:40:09;23.50;;;17.25;;
13985;SDS011;7067;51.832;8.296;2023-04-21T08:42:35;20.80;;;16.40;;
13985;SDS011;7067;51.832;8.296;2023-04-21T08:45:02;22.95;;;16.77;;
13985;SDS011;7067;51.832;8.296;2023-04-21T08:47:28;21.35;;;16.45;;
13985;SDS011;7067;51.832;8.296;2023-04-21T08:49:55;21.35;;;16.73;;
13985;SDS011;7067;51.832;8.296;2023-04-21T08:52:20;21.55;;;16.73;;
13985;SDS011;7067;51.832;8.296;2023-04-21T08:54:46;22.20;;;16.63;;
13985;SDS011;7067;51.832;8.296;2023-04-21T08:57:15;21.17;;;16.30;;
13985;SDS011;7067;51.832;8.296;2023-04-21T08:59:41;22.27;;;17.17;;
13985;SDS011;7067;51.832;8.296;2023-04-21T09:02:07;23.00;;;16.92;;
13985;SDS011;7067;51.832;8.296;2023-04-21T09:04:33;17.92;;;15.10;;
13985;SDS011;7067;51.832;8.296;2023-04-21T09:06:59;22.27;;;17.15;;
13985;SDS011;7067;51.832;8.296;2023-04-21T09:09:24;26.80;;;15.32;;
13985;SDS011;7067;51.832;8.296;2023-04-21T09:11:53;19.88;;;15.30;;
13985;SDS011;7067;51.832;8.296;2023-04-21T09:14:21;24.13;;;15.93;;
13985;SDS011;7067;51.832;8.296;2023-04-21T09:16:47;19.55;;;15.13;;
13985;SDS011;7067;51.832;8.296;2023-04-21T09:19:25;21.02;;;15.80;;
13985;SDS011;7067;51.832;8.296;2023-04-21T09:21:54;20.25;;;15.57;;
13985;SDS011;7067;51.832;8.296;2023-04-21T09:24:20;24.20;;;14.98;;
13985;SDS011;7067;51.832;8.296;2023-04-21T09:26:49;18.05;;;15.05;;
13985;SDS011;7067;51.832;8.296;2023-04-21T09:29:15;20.40;;;14.88;;
13985;SDS011;7067;51.832;8.296;2023-04-21T09:31:41;16.55;;;14.75;;
13985;SDS011;7067;51.832;8.296;2023-04-21T09:34:18;17.38;;;14.90;;
13985;SDS011;7067;51.832;8.296;2023-04-21T09:36:59;18.15;;;13.75;;
13985;SDS011;7067;51.832;8.296;2023-04-21T09:39:28;19.33;;;13.57;;
13985;SDS011;7067;51.832;8.296;2023-04-21T09:41:55;18.35;;;14.27;;
13985;SDS011;7067;51.832;8.296;2023-04-21T09:44:21;20.00;;;13.88;;
13985;SDS011;7067;51.832;8.296;2023-04-21T09:46:47;18.80;;;14.60;;
13985;SDS011;7067;51.832;8.296;2023-04-21T09:49:15;17.88;;;12.45;;
13985;SDS011;7067;51.832;8.296;2023-04-21T09:51:41;20.83;;;14.88;;
13985;SDS011;7067;51.832;8.296;2023-04-21T09:54:17;18.25;;;13.88;;
13985;SDS011;7067;51.832;8.296;2023-04-21T09:56:43;16.55;;;13.15;;
13985;SDS011;7067;51.832;8.296;2023-04-21T09:59:16;18.35;;;13.93;;
13985;SDS011;7067;51.832;8.296;2023-04-21T10:01:46;16.42;;;12.50;;
13985;SDS011;7067;51.832;8.296;2023-04-21T10:04:12;18.08;;;13.50;;
13985;SDS011;7067;51.832;8.296;2023-04-21T10:06:38;15.07;;;13.10;;
13985;SDS011;7067;51.832;8.296;2023-04-21T10:09:03;17.02;;;11.80;;
13985;SDS011;7067;51.832;8.296;2023-04-21T10:11:30;16.30;;;12.80;;
13985;SDS011;7067;51.832;8.296;2023-04-21T10:13:58;20.88;;;12.52;;
13985;SDS011;7067;51.832;8.296;2023-04-21T10:16:23;14.35;;;11.98;;
13985;SDS011;7067;51.832;8.296;2023-04-21T10:18:50;15.48;;;12.52;;
13985;SDS011;7067;51.832;8.296;2023-04-21T10:21:19;12.95;;;11.63;;
13985;SDS011;7067;51.832;8.296;2023-04-21T10:26:24;12.45;;;11.15;;
13985;SDS011;7067;51.832;8.296;2023-04-21T10:28:56;16.80;;;12.53;;
13985;SDS011;7067;51.832;8.296;2023-04-21T10:31:32;15.50;;;11.40;;
13985;SDS011;7067;51.832;8.296;2023-04-21T10:39:30;14.95;;;11.23;;
13985;SDS011;7067;51.832;8.296;2023-04-21T10:44:40;11.88;;;10.63;;
13985;SDS011;7067;51.832;8.296;2023-04-21T10:47:08;13.02;;;10.68;;
13985;SDS011;7067;51.832;8.296;2023-04-21T10:49:36;11.52;;;9.60;;
13985;SDS011;7067;51.832;8.296;2023-04-21T10:52:03;10.98;;;8.90;;
13985;SDS011;7067;51.832;8.296;2023-04-21T10:55:15;10.20;;;8.45;;
13985;SDS011;7067;51.832;8.296;2023-04-21T10:57:18;9.75;;;8.15;;
13985;SDS011;7067;51.832;8.296;2023-04-21T10:59:44;8.82;;;8.02;;
13985;SDS011;7067;51.832;8.296;2023-04-21T11:02:11;11.60;;;8.52;;
13985;SDS011;7067;51.832;8.296;2023-04-21T11:04:37;10.55;;;8.02;;
13985;SDS011;7067;51.832;8.296;2023-04-21T11:09:35;9.80;;;8.85;;
13985;SDS011;7067;51.832;8.296;2023-04-21T11:12:01;10.43;;;8.43;;
13985;SDS011;7067;51.832;8.296;2023-04-21T11:14:28;9.40;;;8.52;;
13985;SDS011;7067;51.832;8.296;2023-04-21T11:16:54;8.95;;;7.90;;
13985;SDS011;7067;51.832;8.296;2023-04-21T11:19:20;14.18;;;8.45;;
13985;SDS011;7067;51.832;8.296;2023-04-21T11:21:49;8.63;;;7.80;;
13985;SDS011;7067;51.832;8.296;2023-04-21T11:24:15;8.35;;;7.40;;
13985;SDS011;7067;51.832;8.296;2023-04-21T11:26:41;13.35;;;7.40;;
13985;SDS011;7067;51.832;8.296;2023-04-21T11:29:07;10.43;;;6.50;;
13985;SDS011;7067;51.832;8.296;2023-04-21T11:31:34;6.28;;;5.70;;
13985;SDS011;7067;51.832;8.296;2023-04-21T11:34:00;7.90;;;5.97;;
13985;SDS011;7067;51.832;8.296;2023-04-21T11:36:26;7.80;;;5.93;;
13985;SDS011;7067;51.832;8.296;2023-04-21T11:38:51;6.28;;;5.72;;
13985;SDS011;7067;51.832;8.296;2023-04-21T11:41:20;7.40;;;5.80;;
13985;SDS011;7067;51.832;8.296;2023-04-21T11:43:47;9.25;;;6.15;;
13985;SDS011;7067;51.832;8.296;2023-04-21T11:46:25;7.55;;;6.50;;
13985;SDS011;7067;51.832;8.296;2023-04-21T11:49:02;7.15;;;5.47;;
13985;SDS011;7067;51.832;8.296;2023-04-21T11:51:35;8.45;;;5.43;;
13985;SDS011;7067;51.832;8.296;2023-04-21T11:54:01;6.60;;;5.75;;
13985;SDS011;7067;51.832;8.296;2023-04-21T11:56:28;7.45;;;6.30;;
13985;SDS011;7067;51.832;8.296;2023-04-21T11:58:54;6.40;;;4.88;;
13985;SDS011;7067;51.832;8.296;2023-04-21T12:01:20;6.95;;;5.10;;
13985;SDS011;7067;51.832;8.296;2023-04-21T12:03:54;6.32;;;5.78;;
13985;SDS011;7067;51.832;8.296;2023-04-21T12:06:23;8.20;;;6.07;;
13985;SDS011;7067;51.832;8.296;2023-04-21T12:08:54;6.32;;;5.72;;
13985;SDS011;7067;51.832;8.296;2023-04-21T12:11:22;8.43;;;5.40;;
13985;SDS011;7067;51.832;8.296;2023-04-21T12:13:48;6.70;;;5.07;;
13985;SDS011;7067;51.832;8.296;2023-04-21T12:16:13;6.85;;;4.90;;
13985;SDS011;7067;51.832;8.296;2023-04-21T12:18:41;7.15;;;6.45;;
13985;SDS011;7067;51.832;8.296;2023-04-21T12:21:06;8.55;;;6.07;;
13985;SDS011;7067;51.832;8.296;2023-04-21T12:23:32;7.75;;;5.75;;
13985;SDS011;7067;51.832;8.296;2023-04-21T12:25:57;10.18;;;6.78;;
13985;SDS011;7067;51.832;8.296;2023-04-21T12:28:22;10.18;;;6.38;;
13985;SDS011;7067;51.832;8.296;2023-04-21T12:30:48;9.63;;;6.72;;
13985;SDS011;7067;51.832;8.296;2023-04-21T12:33:14;7.47;;;5.90;;
13985;SDS011;7067;51.832;8.296;2023-04-21T12:35:39;8.38;;;5.60;;
13985;SDS011;7067;51.832;8.296;2023-04-21T12:38:05;6.45;;;4.55;;
13985;SDS011;7067;51.832;8.296;2023-04-21T12:40:30;6.13;;;5.53;;
13985;SDS011;7067;51.832;8.296;2023-04-21T12:42:56;14.90;;;8.63;;
13985;SDS011;7067;51.832;8.296;2023-04-21T12:45:21;11.55;;;5.43;;
13985;SDS011;7067;51.832;8.296;2023-04-21T12:47:46;8.05;;;6.47;;
13985;SDS011;7067;51.832;8.296;2023-04-21T12:50:18;8.57;;;6.95;;
13985;SDS011;7067;51.832;8.296;2023-04-21T12:52:43;6.28;;;5.68;;
13985;SDS011;7067;51.832;8.296;2023-04-21T12:55:15;8.50;;;5.85;;
13985;SDS011;7067;51.832;8.296;2023-04-21T12:57:41;13.88;;;7.47;;
13985;SDS011;7067;51.832;8.296;2023-04-21T13:00:07;14.80;;;7.45;;
13985;SDS011;7067;51.832;8.296;2023-04-21T13:02:36;6.75;;;5.82;;
13985;SDS011;7067;51.832;8.296;2023-04-21T13:05:02;11.25;;;7.03;;
13985;SDS011;7067;51.832;8.296;2023-04-21T13:07:29;9.75;;;7.80;;
13985;SDS011;7067;51.832;8.296;2023-04-21T13:09:55;8.75;;;5.60;;
13985;SDS011;7067;51.832;8.296;2023-04-21T13:12:21;13.23;;;7.80;;
13985;SDS011;7067;51.832;8.296;2023-04-21T13:14:46;7.18;;;6.05;;
13985;SDS011;7067;51.832;8.296;2023-04-21T13:17:12;18.67;;;8.98;;
13985;SDS011;7067;51.832;8.296;2023-04-21T13:19:39;8.77;;;7.93;;
13985;SDS011;7067;51.832;8.296;2023-04-21T13:22:04;7.10;;;5.80;;
13985;SDS011;7067;51.832;8.296;2023-04-21T13:24:30;20.35;;;7.55;;
13985;SDS011;7067;51.832;8.296;2023-04-21T13:26:55;9.50;;;6.07;;
13985;SDS011;7067;51.832;8.296;2023-04-21T13:29:21;8.68;;;5.68;;
13985;SDS011;7067;51.832;8.296;2023-04-21T13:31:46;6.43;;;3.92;;
13985;SDS011;7067;51.832;8.296;2023-04-21T13:34:12;8.38;;;5.60;;
13985;SDS011;7067;51.832;8.296;2023-04-21T13:36:37;6.95;;;5.25;;
13985;SDS011;7067;51.832;8.296;2023-04-21T13:39:03;12.05;;;6.10;;
13985;SDS011;7067;51.832;8.296;2023-04-21T13:41:29;9.95;;;5.75;;
13985;SDS011;7067;51.832;8.296;2023-04-21T13:43:55;6.55;;;5.95;;
13985;SDS011;7067;51.832;8.296;2023-04-21T13:46:20;5.90;;;5.40;;
13985;SDS011;7067;51.832;8.296;2023-04-21T13:48:46;6.72;;;4.63;;
13985;SDS011;7067;51.832;8.296;2023-04-21T13:51:12;15.95;;;9.38;;
13985;SDS011;7067;51.832;8.296;2023-04-21T13:53:37;13.00;;;5.93;;
13985;SDS011;7067;51.832;8.296;2023-04-21T13:56:03;11.80;;;7.55;;
13985;SDS011;7067;51.832;8.296;2023-04-21T13:58:28;10.98;;;5.57;;
13985;SDS011;7067;51.832;8.296;2023-04-21T14:00:55;13.75;;;6.22;;
13985;SDS011;7067;51.832;8.296;2023-04-21T14:03:20;8.85;;;7.18;;
13985;SDS011;7067;51.832;8.296;2023-04-21T14:05:46;5.78;;;5.13;;
13985;SDS011;7067;51.832;8.296;2023-04-21T14:08:11;25.13;;;7.30;;
13985;SDS011;7067;51.832;8.296;2023-04-21T14:10:36;11.60;;;6.88;;
13985;SDS011;7067;51.832;8.296;2023-04-21T14:13:02;12.77;;;6.38;;
13985;SDS011;7067;51.832;8.296;2023-04-21T14:15:28;6.68;;;5.65;;
13985;SDS011;7067;51.832;8.296;2023-04-21T14:17:54;5.88;;;4.70;;
13985;SDS011;7067;51.832;8.296;2023-04-21T14:20:20;6.32;;;4.45;;
13985;SDS011;7067;51.832;8.296;2023-04-21T14:22:46;9.35;;;5.53;;
13985;SDS011;7067;51.832;8.296;2023-04-21T14:25:11;19.00;;;6.30;;
13985;SDS011;7067;51.832;8.296;2023-04-21T14:27:37;9.55;;;5.53;;
13985;SDS011;7067;51.832;8.296;2023-04-21T14:30:03;16.65;;;6.95;;
13985;SDS011;7067;51.832;8.296;2023-04-21T14:32:29;16.30;;;7.35;;
13985;SDS011;7067;51.832;8.296;2023-04-21T14:34:54;11.00;;;7.05;;
13985;SDS011;7067;51.832;8.296;2023-04-21T14:37:22;7.68;;;4.65;;
13985;SDS011;7067;51.832;8.296;2023-04-21T14:39:48;13.13;;;7.38;;
13985;SDS011;7067;51.832;8.296;2023-04-21T14:42:13;11.57;;;6.57;;
13985;SDS011;7067;51.832;8.296;2023-04-21T14:44:38;15.20;;;6.88;;
13985;SDS011;7067;51.832;8.296;2023-04-21T14:47:04;8.98;;;5.20;;